Time;durP1;ratioP1;P1;durP2;ratioP2;P2;SDS_P1;SDS_P2;PMS_P1;PMS_P2;Temp;Humidity;BMP_temperature;BMP_pressure;BME280_temperature;BME280_humidity;BME280_pressure;Samples;Min_cycle;Max_cycle;Signal;HPM_P1;HPM_P2
2021/08/20 00:02:14;;;;;;;8.80;6.45;;;;;;;30.16;47.51;101012.12;143734;588;45012;-87
2021/08/20 00:04:41;;;;;;;10.00;6.20;;;;;;;30.18;47.72;101004.31;143734;568;47002;-88
2021/08/20 00:07:09;;;;;;;8.32;6.53;;;;;;;30.18;47.02;101016.19;143731;585;47010;-88
2021/08/20 00:09:36;;;;;;;11.57;10.45;;;;;;;30.18;46.68;101012.63;143735;605;46004;-87
2021/08/20 00:12:04;;;;;;;9.40;8.48;;;;;;;30.20;46.73;101016.69;143731;642;46002;-88
2021/08/20 00:14:31;;;;;;;10.23;6.70;;;;;;;30.21;46.19;101020.25;143736;612;47002;-91
2021/08/20 00:16:59;;;;;;;9.40;7.40;;;;;;;30.20;46.42;101022.22;143724;601;49004;-89
2021/08/20 00:19:25;;;;;;;15.45;14.15;;;;;;;30.17;46.74;101030.37;143730;578;47002;-88
2021/08/20 00:21:53;;;;;;;12.82;8.90;;;;;;;30.15;46.18;101027.13;143720;576;49995;-89
2021/08/20 00:24:20;;;;;;;10.35;7.07;;;;;;;30.12;46.08;101028.56;143734;605;47004;-89
2021/08/20 00:26:47;;;;;;;9.52;7.12;;;;;;;30.13;46.36;101032.16;143733;583;47008;-87
2021/08/20 00:29:14;;;;;;;8.57;7.30;;;;;;;30.08;46.45;101033.94;143730;572;47010;-87
2021/08/20 00:31:41;;;;;;;9.10;7.15;;;;;;;30.06;46.44;101036.22;143735;615;45012;-88
2021/08/20 00:34:08;;;;;;;10.85;7.57;;;;;;;30.06;46.29;101035.41;143733;575;47005;-87
2021/08/20 00:36:36;;;;;;;9.30;6.10;;;;;;;30.03;46.47;101030.53;143732;603;47008;-88
2021/08/20 00:39:03;;;;;;;8.27;6.93;;;;;;;30.02;47.05;101028.88;143734;612;47004;-87
2021/08/20 00:41:31;;;;;;;7.80;6.82;;;;;;;29.97;47.28;101038.19;143734;595;45008;-84
2021/08/20 00:43:59;;;;;;;9.57;6.82;;;;;;;29.97;47.21;101040.94;143734;588;47006;-87
2021/08/20 00:46:27;;;;;;;10.13;7.28;;;;;;;29.94;47.10;101039.59;143730;601;48004;-87
2021/08/20 00:48:53;;;;;;;7.53;6.60;;;;;;;29.93;47.19;101032.41;143733;642;47002;-88
2021/08/20 00:51:24;;;;;;;10.10;6.82;;;;;;;29.94;47.39;101031.28;143731;577;48010;-86
2021/08/20 00:53:52;;;;;;;9.40;6.70;;;;;;;29.97;47.06;101038.19;143734;679;47006;-87
2021/08/20 00:56:19;;;;;;;10.10;7.00;;;;;;;29.98;47.50;101036.22;143729;622;48010;-87
2021/08/20 00:58:48;;;;;;;9.10;6.57;;;;;;;30.00;47.89;101033.94;143730;660;47002;-87
2021/08/20 01:01:16;;;;;;;9.05;6.90;;;;;;;29.98;47.76;101031.50;143729;602;48002;-88
2021/08/20 01:03:43;;;;;;;9.38;6.53;;;;;;;29.99;48.06;101032.31;143734;603;47006;-88
2021/08/20 01:06:11;;;;;;;7.90;5.97;;;;;;;29.99;47.85;101035.06;143732;566;46010;-88
2021/08/20 01:08:39;;;;;;;7.30;6.25;;;;;;;29.98;47.61;101030.66;143734;613;47004;-88
2021/08/20 01:11:09;;;;;;;10.25;6.78;;;;;;;29.97;47.97;101034.56;143732;609;46002;-87
2021/08/20 01:13:42;;;;;;;10.68;6.55;;;;;;;29.93;48.09;101023.31;143735;592;47006;-89
2021/08/20 01:16:10;;;;;;;10.32;7.47;;;;;;;29.95;48.07;101029.34;143731;592;47011;-86
2021/08/20 01:18:40;;;;;;;8.13;6.62;;;;;;;29.93;47.56;101023.31;143731;569;47004;-86
2021/08/20 01:21:19;;;;;;;8.13;6.30;;;;;;;29.91;47.73;101018.09;143731;581;45915;-86
2021/08/20 01:23:52;;;;;;;9.32;6.35;;;;;;;29.89;47.85;101014.84;143735;651;47002;-89
2021/08/20 01:26:19;;;;;;;14.07;7.68;;;;;;;29.85;48.48;101013.03;143725;601;50921;-88
2021/08/20 01:28:46;;;;;;;11.48;6.80;;;;;;;29.83;48.34;101009.78;143732;586;47002;-87
2021/08/20 01:31:15;;;;;;;8.43;6.57;;;;;;;29.80;48.29;101014.00;143733;648;46004;-88
2021/08/20 01:33:43;;;;;;;8.43;7.00;;;;;;;29.79;48.62;101007.66;143735;614;47006;-86
2021/08/20 01:36:10;;;;;;;8.38;6.57;;;;;;;29.78;48.32;101014.34;143730;566;49002;-87
2021/08/20 01:38:55;;;;;;;8.68;6.53;;;;;;;29.77;48.20;101012.69;143733;569;46004;-87
2021/08/20 01:41:26;;;;;;;10.60;7.05;;;;;;;29.76;48.59;101008.31;143731;581;45008;-87
2021/08/20 01:43:53;;;;;;;10.68;7.53;;;;;;;29.76;48.63;101015.78;143736;615;47004;-86
2021/08/20 01:46:20;;;;;;;10.63;7.40;;;;;;;29.74;49.23;101010.56;143730;581;47013;-88
2021/08/20 01:48:52;;;;;;;9.82;6.80;;;;;;;29.72;49.01;101012.03;143735;610;47002;-89
2021/08/20 01:51:27;;;;;;;7.70;6.90;;;;;;;29.72;49.19;101015.59;143733;618;45012;-86
2021/08/20 01:53:55;;;;;;;9.68;7.35;;;;;;;29.70;49.00;101017.88;143734;587;47002;-88
2021/08/20 01:56:27;;;;;;;12.80;7.60;;;;;;;29.70;48.75;101014.31;143734;647;46012;-86
2021/08/20 01:58:56;;;;;;;9.00;7.75;;;;;;;29.67;49.41;101012.19;143733;618;46016;-87
2021/08/20 02:01:23;;;;;;;9.13;7.75;;;;;;;29.64;49.15;101019.19;143728;679;46002;-87
2021/08/20 02:03:53;;;;;;;11.43;7.55;;;;;;;29.62;49.14;101021.47;143734;572;47002;-87
2021/08/20 02:06:20;;;;;;;10.82;7.45;;;;;;;29.61;48.80;101017.06;143725;591;48012;-87
2021/08/20 02:08:47;;;;;;;12.00;7.80;;;;;;;29.60;48.65;101019.00;143732;591;47005;-88
2021/08/20 02:11:14;;;;;;;7.32;6.53;;;;;;;29.63;48.21;101023.09;143732;614;46002;-88
2021/08/20 02:13:42;;;;;;;9.38;7.12;;;;;;;29.65;48.33;101018.06;143736;664;47002;-89
2021/08/20 02:16:09;;;;;;;9.43;6.65;;;;;;;29.67;47.89;101026.03;143734;580;46031;-87
2021/08/20 02:18:36;;;;;;;7.93;7.12;;;;;;;29.69;47.56;101024.56;143735;600;47004;-87
2021/08/20 02:21:04;;;;;;;9.30;7.03;;;;;;;29.70;47.58;101023.41;143733;585;45009;-86
2021/08/20 02:23:34;;;;;;;9.77;6.68;;;;;;;29.68;47.63;101022.91;143736;596;47004;-88
2021/08/20 02:26:01;;;;;;;9.35;6.70;;;;;;;29.67;47.53;101014.94;143735;579;46012;-87
2021/08/20 02:28:29;;;;;;;9.27;6.90;;;;;;;29.64;48.31;101021.94;143731;621;47014;-90
2021/08/20 02:30:56;;;;;;;7.57;6.68;;;;;;;29.59;48.10;101017.34;143724;579;49000;-87
2021/08/20 02:33:24;;;;;;;9.98;7.60;;;;;;;29.56;48.56;101023.56;143736;567;47002;-88
2021/08/20 02:35:51;;;;;;;7.12;6.25;;;;;;;29.57;48.61;101032.66;143734;575;46012;-87
2021/08/20 02:38:18;;;;;;;10.75;6.97;;;;;;;29.55;48.26;101023.87;143735;670;46008;-88
2021/08/20 02:40:45;;;;;;;9.50;6.82;;;;;;;29.53;48.59;101026.97;143732;611;46006;-89
2021/08/20 02:43:13;;;;;;;8.65;6.95;;;;;;;29.53;48.32;101028.91;143736;595;47004;-87
2021/08/20 02:45:40;;;;;;;8.75;6.90;;;;;;;29.54;47.97;101030.53;143735;592;47011;-85
2021/08/20 02:48:07;;;;;;;9.63;7.22;;;;;;;29.55;48.33;101037.69;143736;606;46002;-88
2021/08/20 02:50:34;;;;;;;8.55;6.78;;;;;;;29.56;48.54;101044.88;143734;587;45009;-87
2021/08/20 02:53:01;;;;;;;7.40;6.70;;;;;;;29.55;48.94;101049.59;143735;614;47004;-88
2021/08/20 02:55:29;;;;;;;10.07;7.12;;;;;;;29.53;48.57;101045.50;143730;664;47012;-88
2021/08/20 02:57:56;;;;;;;9.73;6.82;;;;;;;29.52;48.69;101046.63;143734;576;46002;-87
2021/08/20 03:00:23;;;;;;;7.05;6.22;;;;;;;29.50;48.82;101052.50;143732;618;48002;-89
2021/08/20 03:02:50;;;;;;;8.65;7.07;;;;;;;29.50;48.63;101056.06;143733;621;47004;-87
2021/08/20 03:05:17;;;;;;;11.07;7.43;;;;;;;29.50;48.34;101047.78;143735;586;47008;-88
2021/08/20 03:07:45;;;;;;;8.80;6.90;;;;;;;29.51;48.12;101054.13;143735;569;46013;-87
2021/08/20 03:10:12;;;;;;;10.65;6.75;;;;;;;29.50;48.17;101050.53;143733;610;45921;-87
2021/08/20 03:12:39;;;;;;;9.57;6.50;;;;;;;29.52;47.64;101053.00;143733;583;48002;-88
2021/08/20 03:15:07;;;;;;;10.07;7.00;;;;;;;29.52;47.73;101053.00;143730;592;48004;-87
2021/08/20 03:17:34;;;;;;;7.95;7.10;;;;;;;29.50;47.77;101063.56;143734;592;47002;-87
2021/08/20 03:20:02;;;;;;;7.57;6.68;;;;;;;29.48;48.07;101058.34;143734;573;45013;-88
2021/08/20 03:22:29;;;;;;;11.85;6.82;;;;;;;29.44;47.69;101060.13;143736;594;47007;-88
2021/08/20 03:24:56;;;;;;;9.23;7.05;;;;;;;29.43;48.21;101058.50;143735;578;46021;-87
2021/08/20 03:27:24;;;;;;;8.15;6.90;;;;;;;29.42;48.04;101065.19;143731;567;47002;-87
2021/08/20 03:29:52;;;;;;;12.10;6.18;;;;;;;29.43;47.15;101060.44;143720;577;51004;-88
2021/08/20 03:32:19;;;;;;;10.60;7.00;;;;;;;29.41;47.57;101063.53;143736;735;47006;-88
2021/08/20 03:34:46;;;;;;;8.82;6.93;;;;;;;29.41;47.81;101063.53;143732;579;47008;-88
2021/08/20 03:37:14;;;;;;;8.35;6.53;;;;;;;29.42;46.84;101058.81;143734;600;47004;-89
2021/08/20 03:39:41;;;;;;;10.93;7.10;;;;;;;29.42;47.44;101056.88;143735;587;46013;-87
2021/08/20 03:42:08;;;;;;;9.40;5.97;;;;;;;29.43;47.27;101065.97;143735;618;47002;-88
2021/08/20 03:44:35;;;;;;;7.60;6.90;;;;;;;29.39;47.55;101068.56;143734;596;47008;-88
2021/08/20 03:47:03;;;;;;;8.68;6.95;;;;;;;29.43;47.19;101074.28;143733;573;47004;-88
2021/08/20 03:49:30;;;;;;;7.72;6.40;;;;;;;29.44;46.93;101071.22;143732;569;46006;-87
2021/08/20 03:51:57;;;;;;;9.70;7.35;;;;;;;29.45;46.77;101072.84;143735;586;47002;-88
2021/08/20 03:54:24;;;;;;;11.18;7.30;;;;;;;29.46;46.28;101080.00;143731;568;48010;-88
2021/08/20 03:56:52;;;;;;;13.73;7.20;;;;;;;29.47;46.42;101081.66;143734;567;47004;-87
2021/08/20 03:59:19;;;;;;;8.80;6.60;;;;;;;29.46;46.15;101074.47;143734;568;45008;-88
2021/08/20 04:01:46;;;;;;;15.10;7.15;;;;;;;29.48;46.31;101080.47;143736;638;47004;-87
2021/08/20 04:04:13;;;;;;;12.70;6.62;;;;;;;29.50;46.28;101080.97;143730;567;49006;-88
2021/08/20 04:06:41;;;;;;;9.95;7.05;;;;;;;29.53;46.36;101081.47;143732;587;46932;-87
2021/08/20 04:09:08;;;;;;;10.05;6.50;;;;;;;29.54;45.89;101088.66;143734;581;45916;-90
2021/08/20 04:11:36;;;;;;;11.35;7.20;;;;;;;29.54;46.34;101088.66;143737;572;47006;-87
2021/08/20 04:14:03;;;;;;;19.95;8.05;;;;;;;29.49;46.97;101081.31;143734;685;47009;-88
2021/08/20 04:16:31;;;;;;;10.18;7.20;;;;;;;29.46;47.18;101093.00;143736;676;46004;-86
2021/08/20 04:18:58;;;;;;;12.80;7.32;;;;;;;29.45;46.79;101096.91;143733;582;46011;-86
2021/08/20 04:21:26;;;;;;;11.70;7.22;;;;;;;29.41;46.85;101096.75;143735;591;49017;-88
2021/08/20 04:23:53;;;;;;;12.98;7.03;;;;;;;29.39;47.22;101092.66;143736;586;46010;-88
2021/08/20 04:26:20;;;;;;;23.02;8.20;;;;;;;29.36;47.19;101094.09;143734;569;47002;-86
2021/08/20 04:28:49;;;;;;;14.98;7.35;;;;;;;29.35;47.46;101100.78;143735;573;45012;-87
2021/08/20 04:31:16;;;;;;;17.40;7.93;;;;;;;29.34;47.36;101105.47;143738;586;46012;-87
2021/08/20 04:33:44;;;;;;;14.38;7.47;;;;;;;29.36;47.33;101107.13;143736;581;46006;-88
2021/08/20 04:36:12;;;;;;;14.18;7.80;;;;;;;29.34;47.46;101112.94;143729;597;48004;-88
2021/08/20 04:38:40;;;;;;;10.55;7.47;;;;;;;29.34;47.98;101111.00;143735;585;45008;-87
2021/08/20 04:41:10;;;;;;;12.43;7.70;;;;;;;29.37;47.73;101120.63;143737;721;47002;-88
2021/08/20 04:43:37;;;;;;;11.05;7.93;;;;;;;29.37;47.44;101119.84;143735;573;46029;-88
2021/08/20 04:46:04;;;;;;;10.30;7.40;;;;;;;29.37;46.56;101119.84;143735;644;47004;-88
2021/08/20 04:48:31;;;;;;;10.98;7.15;;;;;;;29.41;47.05;101129.94;143734;762;45016;-87
2021/08/20 04:50:58;;;;;;;13.82;7.70;;;;;;;29.44;47.06;101125.72;143732;574;48006;-87
2021/08/20 04:53:29;;;;;;;14.95;7.43;;;;;;;29.47;46.73;101123.16;143734;573;47010;-87
2021/08/20 04:55:57;;;;;;;13.20;7.47;;;;;;;29.50;46.30;101118.94;143734;744;47004;-87
2021/08/20 04:58:25;;;;;;;18.05;7.30;;;;;;;29.54;46.16;101116.31;143737;567;46008;-88
2021/08/20 05:00:52;;;;;;;11.77;7.87;;;;;;;29.50;46.45;101113.38;143736;599;47004;-86
2021/08/20 05:03:20;;;;;;;15.32;7.57;;;;;;;29.52;46.73;101118.59;143736;588;46010;-89
2021/08/20 05:05:47;;;;;;;9.02;6.65;;;;;;;29.59;46.66;101125.31;143735;595;47004;-88
2021/08/20 05:08:14;;;;;;;12.85;7.40;;;;;;;29.65;46.41;101117.69;143734;617;45012;-88
2021/08/20 05:10:41;;;;;;;12.13;7.93;;;;;;;29.73;46.28;101125.22;143720;580;47002;-89
2021/08/20 05:13:09;;;;;;;10.40;7.75;;;;;;;29.74;46.12;101131.56;143734;622;47012;-88
2021/08/20 05:15:36;;;;;;;9.38;8.05;;;;;;;29.74;46.12;101135.16;143733;592;48004;-87
2021/08/20 05:18:03;;;;;;;10.38;7.93;;;;;;;29.74;46.40;101128.81;143735;607;45017;-87
2021/08/20 05:20:31;;;;;;;12.73;7.62;;;;;;;29.82;46.15;101132.75;143736;590;48004;-87
2021/08/20 05:22:58;;;;;;;10.27;7.20;;;;;;;29.87;45.76;101136.19;143735;567;46027;-87
2021/08/20 05:25:26;;;;;;;16.75;7.78;;;;;;;29.94;46.29;101144.03;143732;572;49005;-89
2021/08/20 05:27:53;;;;;;;10.98;7.10;;;;;;;29.99;45.91;101149.44;143734;581;45922;-87
2021/08/20 05:30:20;;;;;;;13.62;7.70;;;;;;;29.94;46.73;101153.13;143735;701;47006;-88
2021/08/20 05:32:47;;;;;;;13.85;8.43;;;;;;;29.96;46.56;101144.56;143736;679;46010;-88
2021/08/20 05:35:14;;;;;;;12.15;7.47;;;;;;;29.98;46.86;101145.03;143731;610;48003;-90
2021/08/20 05:37:42;;;;;;;8.32;7.47;;;;;;;30.07;46.24;101153.38;143735;601;45012;-86
2021/08/20 05:40:10;;;;;;;18.17;7.60;;;;;;;30.14;46.97;101150.12;143737;575;47002;-87
2021/08/20 05:42:37;;;;;;;13.90;8.10;;;;;;;30.19;46.86;101153.56;143734;567;47010;-88
2021/08/20 05:45:05;;;;;;;12.70;7.65;;;;;;;30.25;46.42;101148.69;143722;641;48001;-89
2021/08/20 05:47:32;;;;;;;15.48;8.30;;;;;;;30.30;46.98;101156.84;143735;595;45008;-88
2021/08/20 05:49:59;;;;;;;10.75;7.03;;;;;;;30.35;46.85;101156.72;143736;587;47005;-90
2021/08/20 05:52:26;;;;;;;11.27;7.18;;;;;;;30.40;46.80;101161.28;143733;575;47013;-87
2021/08/20 05:54:54;;;;;;;11.82;7.47;;;;;;;30.44;47.04;101151.19;143734;566;47002;-89
2021/08/20 05:57:21;;;;;;;18.17;12.77;;;;;;;30.49;46.68;101150.22;143735;622;45009;-87
2021/08/20 05:59:48;;;;;;;14.80;8.82;;;;;;;30.54;47.02;101150.88;143734;617;49013;-87
2021/08/20 06:02:15;;;;;;;14.95;9.25;;;;;;;30.63;46.75;101156.44;143731;606;47008;-87
2021/08/20 06:04:42;;;;;;;10.98;6.62;;;;;;;30.68;46.70;101161.84;143733;587;47004;-87
2021/08/20 06:07:11;;;;;;;13.80;7.32;;;;;;;30.69;46.95;101169.00;143734;610;46005;-86
2021/08/20 06:09:39;;;;;;;13.93;7.90;;;;;;;30.67;46.34;101173.25;143736;566;47002;-87
2021/08/20 06:12:06;;;;;;;10.80;7.60;;;;;;;30.64;46.68;101168.34;143735;579;47008;-85
2021/08/20 06:14:34;;;;;;;11.10;7.18;;;;;;;30.62;46.55;101174.22;143734;699;47004;-88
2021/08/20 06:17:01;;;;;;;12.88;6.90;;;;;;;30.61;46.30;101177.31;143728;590;49002;-90
2021/08/20 06:19:28;;;;;;;7.72;6.90;;;;;;;30.63;46.73;101178.63;143737;582;47004;-88
2021/08/20 06:21:55;;;;;;;14.55;7.70;;;;;;;30.67;46.51;101184.31;143735;597;47010;-89
2021/08/20 06:24:22;;;;;;;13.10;7.45;;;;;;;30.68;46.57;101183.19;143734;568;47004;-88
2021/08/20 06:26:49;;;;;;;8.82;7.37;;;;;;;30.73;46.71;101184.97;143735;685;45011;-88
2021/08/20 06:29:19;;;;;;;11.75;7.93;;;;;;;30.78;46.46;101182.06;143740;595;46000;-88
2021/08/20 06:31:47;;;;;;;10.40;6.50;;;;;;;30.77;46.31;101185.97;143732;670;48013;-88
2021/08/20 06:34:14;;;;;;;13.57;7.10;;;;;;;30.86;45.85;101172.94;143736;593;46010;-87
2021/08/20 06:36:41;;;;;;;14.20;7.68;;;;;;;30.95;45.71;101179.28;143735;611;45009;-88
2021/08/20 06:39:08;;;;;;;11.77;7.07;;;;;;;31.04;45.68;101178.47;143735;614;47004;-88
2021/08/20 06:41:36;;;;;;;24.35;7.37;;;;;;;31.08;45.82;101184.97;143734;573;47010;-88
2021/08/20 06:44:03;;;;;;;11.93;6.85;;;;;;;31.07;45.12;101192.50;143734;581;47002;-88
2021/08/20 06:46:30;;;;;;;10.75;5.85;;;;;;;31.02;44.20;101192.66;143735;606;45014;-88
2021/08/20 06:48:58;;;;;;;7.22;5.20;;;;;;;30.85;43.91;101194.28;143737;579;47005;-88
2021/08/20 06:51:25;;;;;;;7.37;5.30;;;;;;;30.84;43.52;101200.16;143731;579;50002;-88
2021/08/20 06:53:52;;;;;;;10.10;5.07;;;;;;;30.73;42.84;101191.34;143733;583;47002;-88
2021/08/20 06:56:20;;;;;;;7.93;5.05;;;;;;;30.75;43.36;101202.94;143737;586;45013;-87
2021/08/20 06:58:47;;;;;;;10.00;6.12;;;;;;;30.78;43.67;101199.53;143736;606;47002;-86
2021/08/20 07:01:15;;;;;;;7.97;5.10;;;;;;;30.93;43.80;101198.19;143735;569;47010;-88
2021/08/20 07:03:42;;;;;;;9.02;5.57;;;;;;;30.81;42.82;101201.62;143735;652;47002;-87
2021/08/20 07:06:09;;;;;;;10.18;5.25;;;;;;;30.96;42.70;101205.06;143731;619;46006;-88
2021/08/20 07:08:36;;;;;;;9.98;5.28;;;;;;;31.04;42.44;101209.78;143736;595;47006;-87
2021/08/20 07:11:03;;;;;;;17.00;6.07;;;;;;;31.05;42.49;101213.41;143735;625;47010;-88
2021/08/20 07:13:31;;;;;;;7.60;4.87;;;;;;;30.96;42.34;101216.16;143736;675;46002;-89
2021/08/20 07:15:58;;;;;;;6.43;4.80;;;;;;;30.78;42.43;101215.31;143733;572;46004;-88
2021/08/20 07:18:25;;;;;;;7.47;4.82;;;;;;;30.69;42.22;101212.53;143737;574;47002;-88
2021/08/20 07:20:52;;;;;;;10.15;5.22;;;;;;;30.54;42.86;101211.84;143728;611;48010;-88
2021/08/20 07:23:19;;;;;;;8.50;4.68;;;;;;;30.66;42.36;101213.19;143733;591;47931;-88
2021/08/20 07:25:47;;;;;;;7.87;4.55;;;;;;;30.58;41.73;101214.81;143736;592;45008;-90
2021/08/20 07:28:14;;;;;;;5.18;3.78;;;;;;;30.69;41.21;101218.91;143737;574;47004;-88
2021/08/20 07:30:41;;;;;;;8.30;3.95;;;;;;;30.64;40.91;101230.16;143736;567;46014;-87
2021/08/20 07:33:08;;;;;;;6.87;3.72;;;;;;;30.61;40.41;101230.00;143736;576;46009;-89
2021/08/20 07:35:35;;;;;;;9.35;4.25;;;;;;;30.63;40.10;101227.69;143736;581;45008;-88
2021/08/20 07:38:02;;;;;;;7.10;3.85;;;;;;;30.50;40.31;101226.69;143737;630;47004;-89
2021/08/20 07:40:29;;;;;;;7.37;3.85;;;;;;;30.57;39.67;101226.22;143734;592;46915;-88
2021/08/20 07:42:57;;;;;;;10.55;3.85;;;;;;;30.72;40.01;101228.53;143731;591;47003;-89
2021/08/20 07:45:24;;;;;;;7.00;4.32;;;;;;;30.77;39.73;101222.84;143733;598;45922;-87
2021/08/20 07:47:51;;;;;;;8.30;3.83;;;;;;;30.66;39.23;101227.88;143735;698;47002;-88
2021/08/20 07:50:19;;;;;;;8.20;3.80;;;;;;;30.69;39.10;101227.25;143734;588;47010;-89
2021/08/20 07:52:46;;;;;;;7.30;4.00;;;;;;;30.74;39.14;101231.81;143727;594;48004;-88
2021/08/20 07:55:16;;;;;;;5.18;3.47;;;;;;;30.70;38.89;101239.12;143736;648;45008;-88
2021/08/20 07:57:52;;;;;;;6.22;3.60;;;;;;;30.67;39.44;101242.53;143736;576;47006;-88
2021/08/20 08:00:20;;;;;;;4.90;3.95;;;;;;;30.54;39.56;101241.50;143733;566;47010;-89
2021/08/20 08:02:48;;;;;;;4.85;3.67;;;;;;;30.45;39.77;101249.00;143732;580;47002;-87
2021/08/20 08:05:15;;;;;;;8.07;4.65;;;;;;;30.54;40.90;101228.47;143733;580;45920;-88
2021/08/20 08:07:42;;;;;;;14.27;12.52;;;;;;;30.81;42.52;101248.75;143736;582;47004;-87
2021/08/20 08:10:10;;;;;;;15.70;5.60;;;;;;;30.96;45.47;101247.47;143735;596;46010;-89
2021/08/20 08:12:38;;;;;;;7.32;4.53;;;;;;;30.96;42.72;101258.56;143734;608;47004;-88
2021/08/20 08:15:09;;;;;;;16.87;4.82;;;;;;;31.06;43.08;101246.34;143735;663;45008;-89
2021/08/20 08:17:37;;;;;;;7.32;3.70;;;;;;;31.08;38.41;101241.28;143737;613;47004;-87
2021/08/20 08:20:07;;;;;;;8.75;4.15;;;;;;;31.14;39.49;101255.84;143735;572;47009;-87
2021/08/20 08:22:34;;;;;;;8.90;4.55;;;;;;;31.29;40.53;101258.13;143734;583;47004;-87
2021/08/20 08:25:02;;;;;;;8.60;3.70;;;;;;;31.32;37.23;101255.84;143734;586;46004;-89
2021/08/20 08:27:29;;;;;;;10.88;4.50;;;;;;;31.36;37.01;101263.19;143730;576;48000;-88
2021/08/20 08:29:56;;;;;;;5.65;3.30;;;;;;;31.40;37.11;101257.81;143734;572;47023;-88
2021/08/20 08:32:23;;;;;;;7.47;3.87;;;;;;;31.51;36.52;101259.09;143733;595;47004;-88
2021/08/20 08:34:50;;;;;;;4.95;3.28;;;;;;;31.57;36.18;101252.22;143735;605;45008;-89
2021/08/20 08:37:22;;;;;;;5.22;3.67;;;;;;;31.49;35.58;101263.34;143737;592;46011;-89
2021/08/20 08:39:49;;;;;;;5.20;3.70;;;;;;;31.66;35.67;101259.72;143737;585;47010;-89
2021/08/20 08:42:16;;;;;;;5.82;3.03;;;;;;;31.77;35.72;101249.09;143734;578;47004;-87
2021/08/20 08:44:44;;;;;;;6.47;3.40;;;;;;;31.68;35.96;101258.22;143735;579;45008;-88
2021/08/20 08:47:15;;;;;;;8.20;3.45;;;;;;;31.78;36.22;101259.06;143733;589;47004;-87
2021/08/20 08:49:44;;;;;;;5.55;3.67;;;;;;;31.81;36.47;101253.66;143734;589;46012;-88
2021/08/20 08:52:11;;;;;;;7.30;3.00;;;;;;;31.77;35.76;101262.97;143733;580;47004;-88
2021/08/20 08:54:38;;;;;;;5.72;3.80;;;;;;;31.55;36.06;101259.25;143731;574;45916;-87
2021/08/20 08:57:05;;;;;;;5.25;3.10;;;;;;;31.75;35.91;101257.78;143729;605;47008;-90
2021/08/20 08:59:33;;;;;;;4.50;3.08;;;;;;;31.96;35.41;101243.97;143734;621;46012;-88
2021/08/20 09:02:19;;;;;;;6.07;3.20;;;;;;;32.03;35.25;101258.19;143731;607;47002;-87
2021/08/20 09:05:11;;;;;;;5.93;3.30;;;;;;;31.97;35.55;101250.34;143735;587;45920;-88
2021/08/20 09:07:39;;;;;;;4.70;3.35;;;;;;;31.96;35.55;101255.09;143733;569;47006;-88
2021/08/20 09:10:17;;;;;;;4.80;3.30;;;;;;;32.09;34.72;101249.63;143733;653;46022;-88
2021/08/20 09:12:57;;;;;;;4.47;2.78;;;;;;;32.27;34.36;101234.53;143731;630;47010;-87
2021/08/20 09:15:31;;;;;;;6.03;3.22;;;;;;;32.34;34.30;101245.12;143733;569;45012;-89
2021/08/20 09:18:02;;;;;;;4.78;3.08;;;;;;;32.40;34.22;101235.47;143735;619;47005;-87
2021/08/20 09:20:34;;;;;;;5.57;3.10;;;;;;;32.66;34.07;101232.53;143730;615;47010;-88
2021/08/20 09:23:03;;;;;;;5.47;3.35;;;;;;;32.78;33.34;101226.22;143732;582;47004;-87
2021/08/20 09:25:44;;;;;;;6.35;3.42;;;;;;;32.78;33.43;101233.75;143728;577;49990;-90
2021/08/20 09:28:34;;;;;;;6.50;3.20;;;;;;;32.73;33.66;101231.19;143730;569;47014;-88
2021/08/20 09:31:05;;;;;;;6.22;3.00;;;;;;;32.71;33.55;101247.37;143733;658;47008;-89
2021/08/20 09:33:52;;;;;;;6.68;3.50;;;;;;;32.70;32.56;101243.78;143733;573;47005;-87
2021/08/20 09:36:21;;;;;;;5.55;3.62;;;;;;;32.63;32.46;101232.41;143733;662;45008;-87
2021/08/20 09:38:58;;;;;;;5.15;3.17;;;;;;;32.68;33.03;101237.75;143735;637;47004;-87
2021/08/20 09:41:31;;;;;;;5.50;3.17;;;;;;;32.69;32.90;101233.81;143733;568;47008;-86
2021/08/20 09:44:05;;;;;;;13.73;3.15;;;;;;;32.69;32.67;101236.59;143733;651;46002;-88
2021/08/20 09:47:03;;;;;;;4.57;2.90;;;;;;;32.79;33.19;101235.38;143731;615;45012;-87
2021/08/20 09:49:30;;;;;;;3.70;3.00;;;;;;;32.76;33.79;101227.69;143735;606;47002;-88
2021/08/20 09:51:58;;;;;;;7.30;3.35;;;;;;;32.82;33.14;101223.59;143732;602;47008;-88
2021/08/20 09:54:26;;;;;;;8.55;3.03;;;;;;;32.80;33.32;101223.94;143733;612;46004;-87
2021/08/20 09:56:54;;;;;;;3.70;3.05;;;;;;;32.81;32.73;101224.72;143732;581;46000;-88
2021/08/20 09:59:23;;;;;;;4.05;2.67;;;;;;;32.66;33.37;101223.34;143735;638;47004;-87
2021/08/20 10:01:50;;;;;;;5.85;3.12;;;;;;;32.73;33.54;101231.97;143728;588;48010;-87
2021/08/20 10:04:18;;;;;;;4.05;2.92;;;;;;;32.90;33.11;101228.31;143732;609;47002;-88
2021/08/20 10:06:48;;;;;;;4.35;3.10;;;;;;;32.95;32.63;101224.50;143733;613;45922;-90
2021/08/20 10:09:18;;;;;;;5.65;3.37;;;;;;;33.02;32.74;101226.72;143735;598;47002;-89
2021/08/20 10:11:51;;;;;;;5.68;2.95;;;;;;;32.93;32.83;101224.81;143733;643;47011;-89
2021/08/20 10:14:24;;;;;;;6.78;3.20;;;;;;;32.88;33.27;101213.91;143734;630;46004;-89
2021/08/20 10:16:51;;;;;;;5.15;3.00;;;;;;;32.99;32.39;101217.09;143728;567;45924;-89
2021/08/20 10:19:19;;;;;;;17.25;4.93;;;;;;;33.22;32.33;101209.19;143734;637;47002;-87
2021/08/20 10:21:46;;;;;;;6.10;2.58;;;;;;;33.28;31.55;101215.34;143732;578;47010;-88
2021/08/20 10:24:14;;;;;;;4.22;3.62;;;;;;;32.99;32.54;101225.44;143732;593;47004;-89
2021/08/20 10:27:09;;;;;;;8.77;4.28;;;;;;;32.98;32.34;101237.72;143731;589;46009;-87
2021/08/20 10:29:40;;;;;;;4.82;3.08;;;;;;;32.89;32.30;101229.44;143736;606;46004;-89
2021/08/20 10:32:09;;;;;;;4.68;3.05;;;;;;;33.02;32.77;101224.75;143722;722;49004;-88
2021/08/20 10:34:40;;;;;;;5.70;2.92;;;;;;;33.18;33.18;101233.28;143733;612;47004;-88
2021/08/20 10:37:31;;;;;;;4.70;3.15;;;;;;;33.18;31.96;101238.06;143733;614;45012;-88
2021/08/20 10:40:20;;;;;;;4.40;2.75;;;;;;;32.95;32.28;101235.62;143735;570;47002;-89
2021/08/20 10:42:48;;;;;;;4.87;2.85;;;;;;;32.91;32.29;101245.78;143733;619;47010;-86
2021/08/20 10:45:15;;;;;;;5.65;2.90;;;;;;;33.01;31.22;101242.59;143732;658;47004;-89
2021/08/20 10:47:42;;;;;;;5.15;3.10;;;;;;;33.04;31.73;101249.47;143731;590;46006;-88
2021/08/20 10:50:22;;;;;;;5.25;3.05;;;;;;;33.08;32.17;101245.66;143735;615;47004;-88
2021/08/20 10:52:51;;;;;;;6.62;2.85;;;;;;;33.30;32.48;101251.19;143732;643;47010;-87
2021/08/20 10:55:32;;;;;;;6.15;3.35;;;;;;;33.22;31.90;101233.41;143733;582;47003;-87
2021/08/20 10:58:06;;;;;;;7.43;2.90;;;;;;;33.18;31.28;101243.63;143732;579;45012;-88
2021/08/20 11:00:39;;;;;;;4.12;2.90;;;;;;;33.05;31.81;101242.75;143733;576;47006;-89
2021/08/20 11:03:08;;;;;;;5.83;3.10;;;;;;;32.94;32.23;101239.56;143733;577;47004;-87
2021/08/20 11:05:49;;;;;;;13.20;3.55;;;;;;;33.05;32.06;101228.84;143727;608;49008;-87
2021/08/20 11:08:44;;;;;;;6.82;2.90;;;;;;;33.34;32.40;101229.87;143732;622;46004;-87
2021/08/20 11:11:43;;;;;;;4.60;2.95;;;;;;;33.25;31.44;101232.75;143731;707;48002;-87
2021/08/20 11:14:29;;;;;;;4.97;3.55;;;;;;;33.14;31.28;101240.69;143735;581;46012;-86
2021/08/20 11:16:56;;;;;;;5.72;2.97;;;;;;;33.11;31.15;101233.00;143724;593;48007;-89
2021/08/20 11:19:44;;;;;;;5.22;3.28;;;;;;;33.07;31.94;101232.09;143733;596;45917;-87
2021/08/20 11:22:23;;;;;;;4.93;2.97;;;;;;;32.94;32.20;101225.66;143734;585;47004;-88
2021/08/20 11:25:15;;;;;;;3.90;2.50;;;;;;;32.85;32.90;101231.28;143733;570;46010;-88
2021/08/20 11:28:03;;;;;;;5.28;3.08;;;;;;;32.82;32.52;101234.72;143730;632;47002;-87
2021/08/20 11:30:31;;;;;;;5.80;3.22;;;;;;;32.91;32.11;101246.63;143725;583;48004;-86
2021/08/20 11:33:21;;;;;;;6.15;3.25;;;;;;;32.92;31.90;101222.38;143734;620;48004;-86